createdAt,value
2022-11-12T00:00:47.292Z,0.00
2022-11-12T00:01:47.328Z,0.00
2022-11-12T00:02:47.271Z,0.00
2022-11-12T00:03:50.369Z,0.00
2022-11-12T00:04:47.353Z,0.00
2022-11-12T00:05:47.242Z,0.00
2022-11-12T00:06:47.360Z,0.00
2022-11-12T00:07:47.214Z,0.00
2022-11-12T00:08:47.201Z,0.00
2022-11-12T00:09:47.194Z,0.00
2022-11-12T00:10:47.183Z,0.00
2022-11-12T00:11:47.168Z,0.00
2022-11-12T00:12:47.163Z,0.00
2022-11-12T00:13:47.155Z,0.00
2022-11-12T00:14:47.256Z,0.00
2022-11-12T00:15:47.133Z,0.00
2022-11-12T00:16:47.122Z,0.00
2022-11-12T00:17:47.111Z,0.00
2022-11-12T00:18:50.096Z,0.00
2022-11-12T00:19:47.136Z,0.00
2022-11-12T00:20:47.084Z,0.00
2022-11-12T00:21:47.078Z,0.00
2022-11-12T00:22:47.068Z,0.00
2022-11-12T00:23:47.046Z,0.00
2022-11-12T00:24:47.035Z,0.00
2022-11-12T00:25:47.036Z,0.00
2022-11-12T00:26:47.016Z,0.00
2022-11-12T00:27:47.017Z,0.00
2022-11-12T00:28:47.001Z,0.00
2022-11-12T00:29:47.000Z,0.00
2022-11-12T00:30:46.997Z,0.00
2022-11-12T00:31:46.978Z,0.00
2022-11-12T00:32:46.959Z,0.00
2022-11-12T00:33:49.941Z,0.00
2022-11-12T00:34:46.954Z,0.00
2022-11-12T00:35:46.938Z,0.00
2022-11-12T00:36:46.932Z,0.00
2022-11-12T00:37:46.900Z,0.00
2022-11-12T00:38:46.900Z,0.00
2022-11-12T00:39:46.885Z,0.00
2022-11-12T00:40:46.901Z,0.00
2022-11-12T00:41:46.868Z,0.00
2022-11-12T00:42:46.882Z,0.00
2022-11-12T00:43:46.841Z,0.00
2022-11-12T00:44:46.832Z,0.00
2022-11-12T00:45:46.826Z,0.00
2022-11-12T00:46:46.850Z,0.00
2022-11-12T00:47:46.847Z,0.00
2022-11-12T00:48:49.782Z,0.00
2022-11-12T00:49:46.803Z,0.00
2022-11-12T00:50:46.772Z,0.00
2022-11-12T00:51:46.762Z,0.00
2022-11-12T00:52:46.799Z,0.00
2022-11-12T00:53:46.776Z,0.00
2022-11-12T00:54:46.770Z,0.00
2022-11-12T00:55:46.714Z,0.00
2022-11-12T00:56:46.716Z,0.00
2022-11-12T00:57:46.697Z,0.00
2022-11-12T00:58:46.704Z,0.00
2022-11-12T00:59:46.699Z,0.00
2022-11-12T01:00:46.733Z,0.00
2022-11-12T01:01:46.656Z,0.00
2022-11-12T01:02:51.045Z,0.00
2022-11-12T01:03:49.684Z,0.00
2022-11-12T01:04:46.669Z,0.00
2022-11-12T01:05:46.615Z,0.00
2022-11-12T01:06:46.739Z,0.00
2022-11-12T01:07:48.441Z,0.00
2022-11-12T01:08:46.647Z,0.00
2022-11-12T01:09:46.657Z,0.00
2022-11-12T01:10:46.708Z,0.00
2022-11-12T01:11:46.604Z,0.00
2022-11-12T01:12:46.547Z,0.00
2022-11-12T01:13:46.557Z,0.00
2022-11-12T01:14:46.533Z,0.00
2022-11-12T01:15:46.622Z,0.00
2022-11-12T01:16:46.520Z,0.00
2022-11-12T01:17:46.497Z,0.00
2022-11-12T01:18:49.488Z,0.00
2022-11-12T01:19:46.560Z,0.00
2022-11-12T01:20:46.530Z,0.00
2022-11-12T01:21:46.471Z,0.00
2022-11-12T01:22:46.529Z,0.00
2022-11-12T01:23:46.430Z,0.00
2022-11-12T01:24:46.483Z,0.00
2022-11-12T01:25:46.417Z,0.00
2022-11-12T01:26:46.463Z,0.00
2022-11-12T01:27:46.388Z,0.00
2022-11-12T01:28:46.383Z,0.00
2022-11-12T01:29:46.381Z,0.00
2022-11-12T01:30:46.351Z,0.00
2022-11-12T01:31:46.353Z,0.00
2022-11-12T01:32:46.332Z,0.00
2022-11-12T01:33:49.332Z,0.00
2022-11-12T01:34:46.333Z,0.00
2022-11-12T01:35:46.304Z,0.00
2022-11-12T01:36:46.422Z,0.00
2022-11-12T01:37:46.320Z,0.00
2022-11-12T01:38:46.282Z,0.00
2022-11-12T01:39:46.263Z,0.00
2022-11-12T01:40:46.255Z,0.00
2022-11-12T01:41:46.243Z,0.00
2022-11-12T01:42:46.250Z,0.00
2022-11-12T01:43:46.227Z,0.00
2022-11-12T01:44:46.226Z,0.00
2022-11-12T01:45:46.207Z,0.00
2022-11-12T01:46:46.186Z,0.00
2022-11-12T01:47:46.186Z,0.00
2022-11-12T01:48:49.205Z,0.00
2022-11-12T01:49:51.868Z,0.00
2022-11-12T01:50:46.256Z,0.00
2022-11-12T01:51:46.143Z,0.00
2022-11-12T01:52:46.125Z,0.00
2022-11-12T01:53:46.116Z,0.00
2022-11-12T01:54:46.110Z,0.00
2022-11-12T01:55:46.109Z,0.00
2022-11-12T01:56:46.089Z,0.00
2022-11-12T01:57:46.086Z,0.00
2022-11-12T01:58:46.057Z,0.00
2022-11-12T01:59:46.106Z,0.00
2022-11-12T02:00:46.097Z,0.00
2022-11-12T02:01:46.036Z,0.00
2022-11-12T02:02:46.016Z,0.00
2022-11-12T02:03:48.999Z,0.00
2022-11-12T02:04:46.028Z,0.00
2022-11-12T02:05:45.997Z,0.00
2022-11-12T02:06:46.003Z,0.00
2022-11-12T02:07:45.969Z,0.00
2022-11-12T02:08:45.974Z,0.00
2022-11-12T02:09:45.950Z,0.00
2022-11-12T02:10:46.051Z,0.00
2022-11-12T02:11:45.942Z,0.00
2022-11-12T02:12:45.919Z,0.00
2022-11-12T02:13:45.911Z,0.00
2022-11-12T02:14:45.906Z,0.00
2022-11-12T02:15:45.892Z,0.00
2022-11-12T02:16:45.881Z,0.00
2022-11-12T02:17:45.873Z,0.00
2022-11-12T02:18:48.857Z,0.00
2022-11-12T02:19:45.858Z,0.00
2022-11-12T02:20:45.869Z,0.00
2022-11-12T02:21:45.850Z,0.00
2022-11-12T02:22:45.854Z,0.00
2022-11-12T02:23:45.820Z,0.00
2022-11-12T02:24:45.792Z,0.00
2022-11-12T02:25:45.786Z,0.00
2022-11-12T02:26:45.776Z,0.00
2022-11-12T02:27:45.756Z,0.00
2022-11-12T02:28:45.802Z,0.00
2022-11-12T02:29:45.754Z,0.00
2022-11-12T02:30:45.743Z,0.00
2022-11-12T02:31:45.726Z,0.00
2022-11-12T02:32:45.714Z,0.00
2022-11-12T02:33:48.796Z,0.00
2022-11-12T02:34:45.710Z,0.00
2022-11-12T02:35:45.687Z,0.00
2022-11-12T02:36:45.666Z,0.00
2022-11-12T02:37:45.656Z,0.00
2022-11-12T02:38:45.648Z,0.00
2022-11-12T02:39:45.631Z,0.00
2022-11-12T02:40:45.638Z,0.00
2022-11-12T02:41:45.616Z,0.00
2022-11-12T02:42:45.611Z,0.00
2022-11-12T02:43:45.599Z,0.00
2022-11-12T02:44:45.611Z,0.00
2022-11-12T02:45:45.587Z,0.00
2022-11-12T02:46:45.557Z,0.00
2022-11-12T02:47:45.564Z,0.00
2022-11-12T02:48:48.539Z,0.00
2022-11-12T02:49:45.546Z,0.00
2022-11-12T02:50:45.545Z,0.00
2022-11-12T02:51:45.513Z,0.00
2022-11-12T02:52:45.510Z,0.00
2022-11-12T02:53:45.496Z,0.00
2022-11-12T02:54:45.480Z,0.00
2022-11-12T02:55:45.515Z,0.00
2022-11-12T02:56:45.467Z,0.00
2022-11-12T02:57:45.448Z,0.00
2022-11-12T02:58:45.450Z,0.00
2022-11-12T02:59:45.431Z,0.00
2022-11-12T03:00:45.477Z,0.00
2022-11-12T03:01:45.459Z,0.00
2022-11-12T03:02:45.400Z,0.00
2022-11-12T03:03:48.390Z,0.00
2022-11-12T03:04:49.272Z,0.00
2022-11-12T03:05:45.368Z,0.00
2022-11-12T03:06:45.405Z,0.00
2022-11-12T03:07:45.372Z,0.00
2022-11-12T03:08:45.352Z,0.00
2022-11-12T03:09:45.325Z,0.00
2022-11-12T03:10:45.319Z,0.00
2022-11-12T03:11:45.312Z,0.00
2022-11-12T03:12:45.327Z,0.00
2022-11-12T03:13:45.298Z,0.00
2022-11-12T03:14:45.284Z,0.00
2022-11-12T03:15:45.280Z,0.00
2022-11-12T03:16:45.269Z,0.00
2022-11-12T03:17:45.276Z,0.00
2022-11-12T03:18:48.265Z,0.00
2022-11-12T03:19:45.254Z,0.00
2022-11-12T03:20:45.232Z,0.00
2022-11-12T03:21:45.204Z,0.00
2022-11-12T03:22:45.200Z,0.00
2022-11-12T03:23:45.228Z,0.00
2022-11-12T03:24:45.175Z,0.00
2022-11-12T03:25:45.167Z,0.00
2022-11-12T03:26:45.156Z,0.00
2022-11-12T03:27:45.144Z,0.00
2022-11-12T03:28:45.140Z,0.00
2022-11-12T03:29:45.117Z,0.00
2022-11-12T03:30:45.107Z,0.00
2022-11-12T03:31:45.111Z,0.00
2022-11-12T03:32:45.102Z,0.00
2022-11-12T03:33:48.089Z,0.00
2022-11-12T03:34:45.207Z,0.00
2022-11-12T03:35:45.070Z,0.00
2022-11-12T03:36:45.057Z,0.00
2022-11-12T03:37:45.050Z,0.00
2022-11-12T03:38:45.037Z,0.00
2022-11-12T03:39:45.052Z,0.00
2022-11-12T03:40:45.007Z,0.00
2022-11-12T03:41:45.003Z,0.00
2022-11-12T03:42:44.992Z,0.00
2022-11-12T03:43:44.991Z,0.00
2022-11-12T03:44:44.970Z,0.00
2022-11-12T03:45:44.957Z,0.00
2022-11-12T03:46:44.955Z,0.00
2022-11-12T03:47:44.947Z,0.00
2022-11-12T03:48:47.940Z,0.00
2022-11-12T03:49:44.934Z,0.00
2022-11-12T03:50:45.033Z,0.00
2022-11-12T03:51:44.919Z,0.00
2022-11-12T03:52:44.892Z,0.00
2022-11-12T03:53:44.902Z,0.00
2022-11-12T03:54:44.874Z,0.00
2022-11-12T03:55:44.851Z,0.00
2022-11-12T03:56:44.856Z,0.00
2022-11-12T03:57:44.841Z,0.00
2022-11-12T03:58:44.823Z,0.00
2022-11-12T03:59:44.824Z,0.00
2022-11-12T04:00:44.830Z,0.00
2022-11-12T04:01:44.804Z,0.00
2022-11-12T04:02:44.812Z,0.00
2022-11-12T04:03:47.790Z,0.00
2022-11-12T04:04:44.791Z,0.00
2022-11-12T04:05:44.771Z,0.00
2022-11-12T04:06:44.806Z,0.00
2022-11-12T04:07:44.736Z,0.00
2022-11-12T04:08:44.733Z,0.00
2022-11-12T04:09:44.726Z,0.00
2022-11-12T04:10:44.714Z,0.00
2022-11-12T04:11:44.697Z,0.00
2022-11-12T04:12:44.688Z,0.00
2022-11-12T04:13:44.696Z,0.00
2022-11-12T04:14:44.660Z,0.00
2022-11-12T04:15:44.645Z,0.00
2022-11-12T04:16:44.645Z,0.00
2022-11-12T04:17:44.639Z,0.00
2022-11-12T04:18:47.640Z,0.00
2022-11-12T04:19:44.627Z,0.00
2022-11-12T04:20:44.609Z,0.00
2022-11-12T04:21:44.588Z,0.00
2022-11-12T04:22:44.590Z,0.00
2022-11-12T04:23:44.582Z,0.00
2022-11-12T04:24:44.555Z,0.00
2022-11-12T04:25:44.559Z,0.00
2022-11-12T04:26:44.540Z,0.00
2022-11-12T04:27:44.531Z,0.00
2022-11-12T04:28:44.528Z,0.00
2022-11-12T04:29:44.522Z,0.00
2022-11-12T04:30:44.521Z,0.00
2022-11-12T04:31:44.530Z,0.00
2022-11-12T04:32:44.480Z,0.00
2022-11-12T04:33:47.469Z,0.00
2022-11-12T04:34:44.547Z,0.00
2022-11-12T04:35:44.454Z,0.00
2022-11-12T04:36:44.447Z,0.00
2022-11-12T04:37:44.813Z,0.00
2022-11-12T04:38:44.422Z,0.00
2022-11-12T04:39:44.416Z,0.00
2022-11-12T04:40:44.395Z,0.00
2022-11-12T04:41:44.390Z,0.00
2022-11-12T04:42:44.412Z,0.00
2022-11-12T04:43:44.374Z,0.00
2022-11-12T04:44:44.354Z,0.00
2022-11-12T04:45:44.333Z,0.00
2022-11-12T04:46:44.336Z,0.00
2022-11-12T04:47:44.353Z,0.00
2022-11-12T04:48:47.315Z,0.00
2022-11-12T04:49:44.322Z,0.00
2022-11-12T04:50:44.298Z,0.00
2022-11-12T04:51:44.287Z,0.00
2022-11-12T04:52:44.282Z,0.00
2022-11-12T04:53:44.366Z,0.00
2022-11-12T04:54:44.304Z,0.00
2022-11-12T04:55:44.253Z,0.00
2022-11-12T04:56:44.266Z,0.00
2022-11-12T04:57:44.214Z,0.00
2022-11-12T04:58:44.214Z,0.00
2022-11-12T04:59:44.200Z,0.00
2022-11-12T05:00:44.225Z,0.00
2022-11-12T05:01:44.232Z,0.00
2022-11-12T05:02:44.178Z,0.00
2022-11-12T05:03:47.157Z,0.00
2022-11-12T05:04:44.175Z,0.00
2022-11-12T05:05:44.147Z,0.00
2022-11-12T05:06:44.211Z,0.00
2022-11-12T05:07:44.118Z,0.00
2022-11-12T05:08:44.111Z,0.00
2022-11-12T05:09:44.110Z,0.00
2022-11-12T05:10:44.118Z,0.00
2022-11-12T05:11:44.090Z,0.00
2022-11-12T05:12:44.076Z,0.00
2022-11-12T05:13:44.051Z,0.00
2022-11-12T05:14:44.047Z,0.00
2022-11-12T05:15:44.039Z,0.00
2022-11-12T05:16:44.038Z,0.00
2022-11-12T05:17:44.021Z,0.00
2022-11-12T05:18:47.018Z,0.00
2022-11-12T05:19:44.012Z,0.00
2022-11-12T05:20:43.988Z,0.00
2022-11-12T05:21:44.001Z,0.00
2022-11-12T05:22:54.300Z,0.00
2022-11-12T05:23:44.954Z,0.00
2022-11-12T05:24:43.950Z,0.00
2022-11-12T05:25:43.934Z,0.00
2022-11-12T05:26:43.932Z,0.00
2022-11-12T05:27:43.911Z,0.00
2022-11-12T05:28:43.900Z,0.00
2022-11-12T05:29:43.905Z,0.00
2022-11-12T05:30:43.882Z,0.00
2022-11-12T05:31:43.874Z,0.00
2022-11-12T05:32:43.862Z,0.00
2022-11-12T05:33:46.963Z,0.00
2022-11-12T05:34:43.855Z,0.00
2022-11-12T05:35:43.833Z,0.00
2022-11-12T05:36:43.822Z,0.00
2022-11-12T05:37:43.816Z,0.00
2022-11-12T05:38:43.815Z,0.00
2022-11-12T05:39:43.803Z,0.00
2022-11-12T05:40:43.787Z,0.00
2022-11-12T05:42:10.878Z,0.00
2022-11-12T05:42:44.764Z,0.00
2022-11-12T05:43:43.754Z,0.00
2022-11-12T05:44:43.777Z,0.00
2022-11-12T05:45:43.732Z,0.00
2022-11-12T05:46:43.726Z,0.00
2022-11-12T05:47:43.730Z,0.00
2022-11-12T05:48:46.699Z,0.00
2022-11-12T05:49:43.705Z,0.00
2022-11-12T05:51:06.251Z,0.00
2022-11-12T05:51:44.667Z,0.00
2022-11-12T05:52:43.654Z,0.00
2022-11-12T05:53:43.648Z,0.00
2022-11-12T05:54:43.634Z,0.00
2022-11-12T05:55:43.724Z,0.00
2022-11-12T05:56:43.649Z,0.00
2022-11-12T05:57:43.612Z,1.00
2022-11-12T05:58:43.538Z,1.00
2022-11-12T05:59:43.527Z,1.00
2022-11-12T06:00:43.591Z,0.00
2022-11-12T06:01:43.525Z,2.00
2022-11-12T06:02:43.571Z,2.00
2022-11-12T06:03:46.489Z,3.00
2022-11-12T06:04:43.500Z,2.00
2022-11-12T06:05:43.467Z,2.00
2022-11-12T06:06:43.563Z,3.00
2022-11-12T06:07:43.451Z,6.00
2022-11-12T06:08:43.438Z,5.00
2022-11-12T06:09:43.430Z,7.00
2022-11-12T06:10:43.418Z,6.00
2022-11-12T06:11:43.406Z,11.00
2022-11-12T06:12:43.435Z,15.00
2022-11-12T06:13:43.394Z,18.00
2022-11-12T06:14:43.373Z,19.00
2022-11-12T06:15:43.368Z,23.00
2022-11-12T06:16:43.369Z,26.00
2022-11-12T06:17:43.350Z,33.00
2022-11-12T06:18:46.360Z,34.00
2022-11-12T06:19:43.332Z,41.00
2022-11-12T06:20:43.313Z,43.00
2022-11-12T06:21:43.333Z,51.00
2022-11-12T06:22:43.294Z,59.00
2022-11-12T06:23:43.285Z,66.00
2022-11-12T06:24:43.308Z,68.00
2022-11-12T06:25:43.257Z,78.00
2022-11-12T06:26:43.333Z,87.00
2022-11-12T06:27:43.278Z,98.00
2022-11-12T06:28:43.298Z,104.00
2022-11-12T06:29:43.258Z,115.00
2022-11-12T06:30:43.212Z,126.00
2022-11-12T06:31:43.232Z,139.00
2022-11-12T06:32:43.192Z,146.00
2022-11-12T06:33:46.175Z,165.00
2022-11-12T06:34:43.185Z,171.00
2022-11-12T06:35:43.451Z,182.00
2022-11-12T06:36:43.166Z,193.00
2022-11-12T06:37:43.144Z,214.00
2022-11-12T06:38:43.128Z,227.00
2022-11-12T06:39:43.114Z,240.00
2022-11-12T06:40:43.128Z,266.00
2022-11-12T06:41:43.089Z,286.00
2022-11-12T06:42:43.107Z,286.00
2022-11-12T06:43:43.128Z,301.00
2022-11-12T06:44:43.062Z,320.00
2022-11-12T06:45:43.058Z,349.00
2022-11-12T06:46:43.084Z,354.00
2022-11-12T06:47:43.050Z,359.00
2022-11-12T06:48:46.021Z,381.00
2022-11-12T06:49:43.037Z,411.00
2022-11-12T06:50:43.010Z,435.00
2022-11-12T06:51:43.141Z,437.00
2022-11-12T06:52:42.988Z,449.00
2022-11-12T06:53:42.980Z,473.00
2022-11-12T06:54:42.970Z,484.00
2022-11-12T06:55:42.947Z,485.00
2022-11-12T06:56:42.957Z,504.00
2022-11-12T06:57:42.933Z,526.00
2022-11-12T06:58:42.927Z,518.00
2022-11-12T06:59:42.924Z,510.00
2022-11-12T07:00:42.921Z,531.00
2022-11-12T07:01:42.905Z,570.00
2022-11-12T07:02:42.883Z,585.00
2022-11-12T07:03:45.873Z,606.00
2022-11-12T07:04:42.879Z,621.00
2022-11-12T07:05:42.851Z,612.00
2022-11-12T07:06:42.893Z,598.00
2022-11-12T07:07:42.834Z,623.00
2022-11-12T07:08:42.835Z,730.00
2022-11-12T07:09:42.795Z,827.00
2022-11-12T07:10:42.794Z,845.00
2022-11-12T07:11:42.797Z,831.00
2022-11-12T07:12:42.764Z,841.00
2022-11-12T07:13:43.801Z,900.00
2022-11-12T07:14:42.757Z,935.00
2022-11-12T07:15:42.755Z,945.00
2022-11-12T07:16:42.733Z,978.00
2022-11-12T07:17:42.715Z,1022.00
2022-11-12T07:18:45.757Z,1014.00
2022-11-12T07:19:42.717Z,1017.00
2022-11-12T07:20:42.688Z,1031.00
2022-11-12T07:21:42.686Z,1051.00
2022-11-12T07:22:42.680Z,1017.00
2022-11-12T07:23:42.666Z,1032.00
2022-11-12T07:24:42.676Z,1011.00
2022-11-12T07:25:42.647Z,976.00
2022-11-12T07:26:47.231Z,962.00
2022-11-12T07:27:42.617Z,981.00
2022-11-12T07:28:42.607Z,1007.00
2022-11-12T07:29:47.929Z,1031.00
2022-11-12T07:30:42.619Z,1092.00
2022-11-12T07:31:42.583Z,1100.00
2022-11-12T07:32:46.203Z,1043.00
2022-11-12T07:33:45.557Z,1095.00
2022-11-12T07:34:42.561Z,1207.00
2022-11-12T07:35:42.528Z,1280.00
2022-11-12T07:36:42.527Z,1346.00
2022-11-12T07:37:42.520Z,1390.00
2022-11-12T07:38:42.521Z,1422.00
2022-11-12T07:39:42.489Z,1443.00
2022-11-12T07:40:42.482Z,1442.00
2022-11-12T07:41:42.514Z,1441.00
2022-11-12T07:42:42.491Z,1449.00
2022-11-12T07:43:42.449Z,1484.00
2022-11-12T07:44:42.436Z,1558.00
2022-11-12T07:45:42.438Z,1600.00
2022-11-12T07:46:42.422Z,1633.00
2022-11-12T07:47:42.430Z,1668.00
2022-11-12T07:48:45.397Z,1605.00
2022-11-12T07:49:42.410Z,1647.00
2022-11-12T07:50:42.380Z,1859.00
2022-11-12T07:51:42.379Z,2169.00
2022-11-12T07:52:42.404Z,2351.00
2022-11-12T07:53:42.345Z,2409.00
2022-11-12T07:54:42.373Z,2299.00
2022-11-12T07:55:42.333Z,2120.00
2022-11-12T07:56:42.321Z,2021.00
2022-11-12T07:57:42.311Z,2048.00
2022-11-12T07:58:42.314Z,2219.00
2022-11-12T07:59:46.063Z,2416.00
2022-11-12T08:00:42.281Z,2521.00
2022-11-12T08:01:42.304Z,2570.00
2022-11-12T08:02:42.268Z,2435.00
2022-11-12T08:03:45.369Z,2337.00
2022-11-12T08:04:42.262Z,2254.00
2022-11-12T08:05:42.225Z,2289.00
2022-11-12T08:06:42.346Z,2435.00
2022-11-12T08:07:42.416Z,2651.00
2022-11-12T08:08:42.209Z,2691.00
2022-11-12T08:09:42.236Z,2761.00
2022-11-12T08:10:42.177Z,2604.00
2022-11-12T08:11:42.156Z,2399.00
2022-11-12T08:12:42.156Z,2473.00
2022-11-12T08:13:42.152Z,2689.00
2022-11-12T08:14:42.159Z,2658.00
2022-11-12T08:15:42.148Z,2468.00
2022-11-12T08:16:42.117Z,2435.00
2022-11-12T08:17:42.108Z,2666.00
2022-11-12T08:18:45.089Z,2434.00
2022-11-12T08:19:42.098Z,2764.00
2022-11-12T08:20:42.169Z,2524.00
2022-11-12T08:21:42.065Z,2152.00
2022-11-12T08:22:47.957Z,2380.00
2022-11-12T08:23:42.050Z,2527.00
2022-11-12T08:24:42.030Z,2691.00
2022-11-12T08:25:42.026Z,2767.00
2022-11-12T08:26:42.761Z,2719.00
2022-11-12T08:27:42.010Z,2663.00
2022-11-12T08:28:41.995Z,2465.00
2022-11-12T08:29:41.980Z,3042.00
2022-11-12T08:30:41.966Z,2890.00
2022-11-12T08:31:42.011Z,2993.00
2022-11-12T08:32:41.943Z,3043.00
2022-11-12T08:33:44.940Z,3254.00
2022-11-12T08:34:41.949Z,2995.00
2022-11-12T08:35:41.918Z,2951.00
2022-11-12T08:36:41.903Z,3221.00
2022-11-12T08:37:41.920Z,2870.00
2022-11-12T08:38:41.899Z,2799.00
2022-11-12T08:39:41.882Z,2566.00
2022-11-12T08:40:41.867Z,2688.00
2022-11-12T08:41:41.855Z,2694.00
2022-11-12T08:42:41.888Z,3421.00
2022-11-12T08:43:41.837Z,3320.00
2022-11-12T08:44:41.815Z,2845.00
2022-11-12T08:45:41.815Z,3163.00
2022-11-12T08:46:41.819Z,3239.00
2022-11-12T08:47:41.797Z,3499.00
2022-11-12T08:48:44.785Z,3611.00
2022-11-12T08:49:47.657Z,3505.00
2022-11-12T08:50:41.768Z,3476.00
2022-11-12T08:51:41.774Z,3555.00
2022-11-12T08:52:41.751Z,3648.00
2022-11-12T08:53:41.739Z,3241.00
2022-11-12T08:54:41.727Z,3104.00
2022-11-12T08:55:41.721Z,3257.00
2022-11-12T08:56:41.708Z,3465.00
2022-11-12T08:57:41.695Z,3144.00
2022-11-12T08:58:41.686Z,2893.00
2022-11-12T08:59:41.673Z,3028.00
2022-11-12T09:00:41.711Z,3528.00
2022-11-12T09:01:41.764Z,3438.00
2022-11-12T09:02:41.649Z,3232.00
2022-11-12T09:03:44.630Z,3635.00
2022-11-12T09:04:41.629Z,3428.00
2022-11-12T09:05:42.572Z,3044.00
2022-11-12T09:06:41.624Z,3303.00
2022-11-12T09:07:50.026Z,3265.00
2022-11-12T09:08:41.581Z,3562.00
2022-11-12T09:09:41.568Z,3978.00
2022-11-12T09:10:41.563Z,4481.00
2022-11-12T09:11:41.648Z,3958.00
2022-11-12T09:12:41.539Z,4178.00
2022-11-12T09:13:41.623Z,4523.00
2022-11-12T09:14:41.518Z,3814.00
2022-11-12T09:15:41.516Z,4094.00
2022-11-12T09:16:41.511Z,4565.00
2022-11-12T09:17:41.503Z,5374.00
2022-11-12T09:18:44.473Z,4163.00
2022-11-12T09:19:42.995Z,3788.00
2022-11-12T09:20:41.451Z,3746.00
2022-11-12T09:21:41.472Z,4102.00
2022-11-12T09:22:41.435Z,4383.00
2022-11-12T09:23:41.440Z,4677.00
2022-11-12T09:24:41.414Z,4617.00
2022-11-12T09:25:41.405Z,5036.00
2022-11-12T09:26:41.396Z,4920.00
2022-11-12T09:27:47.218Z,4745.00
2022-11-12T09:28:41.543Z,4873.00
2022-11-12T09:29:41.377Z,5011.00
2022-11-12T09:30:41.363Z,5181.00
2022-11-12T09:31:41.338Z,4914.00
2022-11-12T09:32:41.339Z,5150.00
2022-11-12T09:33:44.337Z,4865.00
2022-11-12T09:34:41.327Z,5373.00
2022-11-12T09:35:41.297Z,5069.00
2022-11-12T09:36:41.343Z,5440.00
2022-11-12T09:37:41.286Z,5361.00
2022-11-12T09:38:41.290Z,5263.00
2022-11-12T09:39:41.257Z,5345.00
2022-11-12T09:40:41.250Z,5052.00
2022-11-12T09:41:41.247Z,5034.00
2022-11-12T09:42:41.225Z,4838.00
2022-11-12T09:43:41.257Z,4781.00
2022-11-12T09:44:41.229Z,4974.00
2022-11-12T09:45:46.571Z,4778.00
2022-11-12T09:46:42.193Z,5109.00
2022-11-12T09:47:41.203Z,5405.00
2022-11-12T09:48:44.191Z,5237.00
2022-11-12T09:49:41.210Z,4896.00
2022-11-12T09:50:41.139Z,4830.00
2022-11-12T09:51:41.158Z,5110.00
2022-11-12T09:52:41.138Z,4272.00
2022-11-12T09:53:44.272Z,4669.00
2022-11-12T09:54:41.102Z,5322.00
2022-11-12T09:55:41.087Z,5519.00
2022-11-12T09:56:41.080Z,5726.00
2022-11-12T09:57:41.070Z,4578.00
2022-11-12T09:58:41.070Z,5106.00
2022-11-12T09:59:41.059Z,4879.00
2022-11-12T10:00:44.891Z,5667.00
2022-11-12T10:01:41.070Z,5511.00
2022-11-12T10:02:41.022Z,5040.00
2022-11-12T10:03:44.027Z,4882.00
2022-11-12T10:04:41.023Z,5077.00
2022-11-12T10:05:41.013Z,5378.00
2022-11-12T10:06:41.008Z,5680.00
2022-11-12T10:07:40.978Z,5762.00
2022-11-12T10:08:40.973Z,5956.00
2022-11-12T10:09:40.946Z,5985.00
2022-11-12T10:10:40.943Z,6316.00
2022-11-12T10:11:40.943Z,5854.00
2022-11-12T10:12:40.926Z,6032.00
2022-11-12T10:13:40.913Z,5749.00
2022-11-12T10:14:40.895Z,6594.00
2022-11-12T10:15:40.883Z,6077.00
2022-11-12T10:16:40.874Z,5520.00
2022-11-12T10:17:40.954Z,6283.00
2022-11-12T10:18:43.856Z,6332.00
2022-11-12T10:19:40.857Z,5818.00
2022-11-12T10:20:40.848Z,6100.00
2022-11-12T10:21:40.824Z,5946.00
2022-11-12T10:22:40.819Z,6428.00
2022-11-12T10:23:40.810Z,6466.00
2022-11-12T10:24:40.795Z,6526.00
2022-11-12T10:25:40.784Z,5973.00
2022-11-12T10:26:40.786Z,6293.00
2022-11-12T10:27:40.805Z,5897.00
2022-11-12T10:28:40.754Z,5964.00
2022-11-12T10:29:40.748Z,6235.00
2022-11-12T10:30:40.737Z,5323.00
2022-11-12T10:31:40.735Z,5170.00
2022-11-12T10:32:40.706Z,4976.00
2022-11-12T10:33:43.728Z,5309.00
2022-11-12T10:34:40.707Z,5361.00
2022-11-12T10:35:40.697Z,6067.00
2022-11-12T10:36:40.670Z,6115.00
2022-11-12T10:37:40.680Z,5896.00
2022-11-12T10:38:40.750Z,6677.00
2022-11-12T10:39:40.638Z,4887.00
2022-11-12T10:40:40.628Z,6009.00
2022-11-12T10:41:40.619Z,7075.00
2022-11-12T10:42:40.610Z,6220.00
2022-11-12T10:43:40.629Z,6184.00
2022-11-12T10:44:40.590Z,6531.00
2022-11-12T10:45:40.570Z,7288.00
2022-11-12T10:46:40.573Z,7538.00
2022-11-12T10:47:40.548Z,6757.00
2022-11-12T10:48:43.569Z,7398.00
2022-11-12T10:49:40.555Z,7819.00
2022-11-12T10:50:40.519Z,7892.00
2022-11-12T10:51:40.524Z,8066.00
2022-11-12T10:52:40.505Z,8593.00
2022-11-12T10:53:40.483Z,7137.00
2022-11-12T10:54:40.487Z,6657.00
2022-11-12T10:55:40.472Z,6502.00
2022-11-12T10:56:40.464Z,7575.00
2022-11-12T10:57:40.495Z,7788.00
2022-11-12T10:58:40.442Z,7782.00
2022-11-12T10:59:40.433Z,7160.00
2022-11-12T11:00:40.413Z,6948.00
2022-11-12T11:01:45.338Z,6639.00
2022-11-12T11:02:40.408Z,6626.00
2022-11-12T11:03:43.385Z,7299.00
2022-11-12T11:04:40.394Z,7942.00
2022-11-12T11:05:40.367Z,8337.00
2022-11-12T11:06:40.406Z,8542.00
2022-11-12T11:07:40.366Z,7214.00
2022-11-12T11:08:40.500Z,9354.00
2022-11-12T11:09:40.314Z,8831.00
2022-11-12T11:10:40.317Z,9153.00
2022-11-12T11:11:40.413Z,9390.00
2022-11-12T11:12:40.284Z,9068.00
2022-11-12T11:13:40.286Z,8904.00
2022-11-12T11:14:40.270Z,8643.00
2022-11-12T11:15:40.264Z,8656.00
2022-11-12T11:16:40.257Z,8746.00
2022-11-12T11:17:40.240Z,8781.00
2022-11-12T11:18:43.327Z,8988.00
2022-11-12T11:19:40.240Z,8518.00
2022-11-12T11:20:41.202Z,9566.00
2022-11-12T11:21:42.433Z,10173.00
2022-11-12T11:22:40.197Z,9350.00
2022-11-12T11:23:40.177Z,9475.00
2022-11-12T11:24:40.177Z,10187.00
2022-11-12T11:25:40.147Z,9514.00
2022-11-12T11:26:40.154Z,9805.00
2022-11-12T11:27:40.169Z,9691.00
2022-11-12T11:28:40.128Z,11167.00
2022-11-12T11:29:40.118Z,10273.00
2022-11-12T11:30:40.108Z,11518.00
2022-11-12T11:31:40.111Z,10556.00
2022-11-12T11:32:40.110Z,10486.00
2022-11-12T11:33:43.122Z,10370.00
2022-11-12T11:34:40.081Z,11535.00
2022-11-12T11:35:40.051Z,19366.00
2022-11-12T11:36:40.043Z,19779.00
2022-11-12T11:37:40.034Z,22469.00
2022-11-12T11:38:40.032Z,20351.00
2022-11-12T11:39:40.011Z,19214.00
2022-11-12T11:40:40.051Z,20690.00
2022-11-12T11:41:39.984Z,22632.00
2022-11-12T11:42:39.981Z,18107.00
2022-11-12T11:43:40.022Z,18790.00
2022-11-12T11:44:39.968Z,17604.00
2022-11-12T11:45:39.941Z,19216.00
2022-11-12T11:46:39.944Z,20065.00
2022-11-12T11:48:00.010Z,16387.00
2022-11-12T11:48:43.923Z,16754.00
2022-11-12T11:49:39.923Z,13921.00
2022-11-12T11:51:39.892Z,14835.00
2022-11-12T11:52:39.869Z,16809.00
2022-11-12T11:53:39.862Z,18364.00
2022-11-12T11:54:39.853Z,18669.00
2022-11-12T11:55:39.849Z,17317.00
2022-11-12T11:56:39.838Z,16429.00
2022-11-12T11:57:39.825Z,16989.00
2022-11-12T11:58:39.824Z,18414.00
2022-11-12T11:59:39.806Z,18019.00
2022-11-12T12:00:39.787Z,18808.00
2022-11-12T12:01:39.777Z,18687.00
2022-11-12T12:02:39.778Z,15493.00
2022-11-12T12:03:42.838Z,16562.00
2022-11-12T12:04:39.765Z,14760.00
2022-11-12T12:05:39.737Z,13778.00
2022-11-12T12:06:39.757Z,16159.00
2022-11-12T12:07:39.739Z,14988.00
2022-11-12T12:08:39.708Z,16538.00
2022-11-12T12:09:39.800Z,13006.00
2022-11-12T12:11:01.748Z,15871.00
2022-11-12T12:11:40.681Z,15181.00
2022-11-12T12:12:39.700Z,14021.00
2022-11-12T12:13:39.659Z,13768.00
2022-11-12T12:14:39.638Z,14558.00
2022-11-12T12:15:39.637Z,12890.00
2022-11-12T12:16:39.661Z,11850.00
2022-11-12T12:17:39.632Z,11576.00
2022-11-12T12:18:42.611Z,12623.00
2022-11-12T12:19:39.613Z,13059.00
2022-11-12T12:20:39.614Z,11970.00
2022-11-12T12:21:39.569Z,12770.00
2022-11-12T12:22:39.564Z,12637.00
2022-11-12T12:23:39.556Z,11529.00
2022-11-12T12:24:39.542Z,11222.00
2022-11-12T12:25:39.536Z,12035.00
2022-11-12T12:26:39.562Z,10950.00
2022-11-12T12:27:39.511Z,11317.00
2022-11-12T12:28:39.510Z,11888.00
2022-11-12T12:29:39.487Z,10133.00
2022-11-12T12:30:39.504Z,11389.00
2022-11-12T12:31:39.494Z,11286.00
2022-11-12T12:32:39.484Z,12635.00
2022-11-12T12:33:42.445Z,11615.00
2022-11-12T12:34:39.455Z,11288.00
2022-11-12T12:35:39.424Z,11926.00
2022-11-12T12:36:39.419Z,12885.00
2022-11-12T12:38:00.508Z,12763.00
2022-11-12T12:38:39.397Z,10989.00
2022-11-12T12:39:42.394Z,10466.00
2022-11-12T12:40:39.410Z,10775.00